Time;durP1;ratioP1;P1;durP2;ratioP2;P2;SDS_P1;SDS_P2;PMS_P1;PMS_P2;Temp;Humidity;BMP_temperature;BMP_pressure;BME280_temperature;BME280_humidity;BME280_pressure;Samples;Min_cycle;Max_cycle;Signal;HPM_P1;HPM_P2
2022/11/15 00:04:32;;;;;;;111.30;44.53;;;;;;;5.66;100.00;100901.08;5115875;55;1145106;-71
2022/11/15 00:09:55;;;;;;;83.03;40.20;;;;;;;5.60;100.00;100888.75;5117633;55;1147652;-66
2022/11/15 00:15:19;;;;;;;93.20;39.88;;;;;;;5.56;100.00;100881.50;5105286;55;1143076;-66
2022/11/15 00:20:42;;;;;;;;;;;;;;;5.55;100.00;100867.14;5050583;56;1143575;-69
2022/11/15 00:26:06;;;;;;;156.25;60.23;;;;;;;5.57;100.00;100864.83;5058744;56;976343;-66
2022/11/15 00:31:29;;;;;;;89.83;41.60;;;;;;;5.55;100.00;100867.98;5052014;56;1140942;-67
2022/11/15 00:36:53;;;;;;;85.60;39.53;;;;;;;5.52;100.00;100862.05;5052203;57;1143111;-69
2022/11/15 00:42:16;;;;;;;88.57;40.83;;;;;;;5.52;100.00;100860.27;5051978;56;1143108;-67
2022/11/15 00:47:40;;;;;;;110.17;43.68;;;;;;;5.54;100.00;100854.95;5052162;56;1143246;-69
2022/11/15 00:53:03;;;;;;;103.63;45.17;;;;;;;5.52;100.00;100848.47;5128048;56;1145156;-68
2022/11/15 00:58:26;;;;;;;101.80;42.83;;;;;;;5.64;100.00;100856.19;5130206;56;1145310;-67
2022/11/15 01:03:49;;;;;;;101.77;41.20;;;;;;;5.64;100.00;100856.19;5183422;55;1145186;-67
2022/11/15 01:09:13;;;;;;;;;;;;;;;5.65;100.00;100856.08;5081426;56;1144947;-68
2022/11/15 01:14:37;;;;;;;109.53;42.57;;;;;;;5.63;100.00;100854.49;5068550;56;976075;-67
2022/11/15 01:20:00;;;;;;;104.58;45.78;;;;;;;5.59;100.00;100848.55;5138749;55;1143064;-65
2022/11/15 01:25:24;;;;;;;89.47;40.93;;;;;;;5.57;100.00;100840.37;5191496;55;1145410;-68
2022/11/15 01:30:47;;;;;;;105.37;42.67;;;;;;;5.61;100.00;100843.22;5229542;55;1142931;-68
2022/11/15 01:36:14;;;;;;;124.10;45.90;;;;;;;5.61;100.00;100836.20;5190027;55;1145130;-68
2022/11/15 01:41:38;;;;;;;123.50;45.03;;;;;;;5.61;100.00;100840.14;5167132;55;1143186;-67
2022/11/15 01:47:03;;;;;;;;;;;;;;;5.60;100.00;100825.78;5228671;55;1145068;-67
2022/11/15 01:52:30;;;;;;;93.87;40.05;;;;;;;5.59;100.00;100814.91;5162170;55;976361;-65
2022/11/15 01:57:59;;;;;;;117.57;42.43;;;;;;;5.52;100.00;100799.93;5137378;56;1203204;-66
2022/11/15 02:03:27;;;;;;;91.90;39.53;;;;;;;5.56;100.00;100801.48;5180553;55;1145570;-68
2022/11/15 02:08:52;;;;;;;98.70;41.43;;;;;;;5.56;100.00;100800.16;5116865;56;1142996;-67
2022/11/15 02:14:19;;;;;;;89.50;37.40;;;;;;;5.55;100.00;100790.59;5138148;56;1143221;-67
2022/11/15 02:20:10;;;;;;;87.40;38.47;;;;;;;5.54;100.00;100788.90;5192026;55;1143162;-68
2022/11/15 02:25:43;;;;;;;122.70;43.00;;;;;;;5.56;100.00;100788.36;5229188;55;1143093;-66
2022/11/15 02:31:35;;;;;;;92.32;42.02;;;;;;;5.53;100.00;100791.59;5229147;55;1145287;-69
2022/11/15 02:37:21;;;;;;;91.73;40.23;;;;;;;5.54;100.00;100790.21;5229375;55;1143271;-69
2022/11/15 02:48:37;;;;;;;136.17;43.50;;;;;;;5.63;100.00;100777.94;5228231;55;1143198;-68
2022/11/15 02:54:00;;;;;;;112.17;42.17;;;;;;;5.57;100.00;100781.34;5150704;55;1145215;-69
2022/11/15 02:59:43;;;;;;;79.90;36.65;;;;;;;5.51;100.00;100780.33;5140794;56;1145265;-68
2022/11/15 03:05:15;;;;;;;91.47;39.73;;;;;;;5.51;100.00;100774.62;5022476;56;1149115;-66
2022/11/15 03:10:54;;;;;;;119.07;43.77;;;;;;;5.54;100.00;100773.16;5116951;56;1143031;-66
2022/11/15 03:16:28;;;;;;;114.57;39.47;;;;;;;5.55;100.00;100755.18;5136059;56;1145081;-69
2022/11/15 03:21:53;;;;;;;82.43;37.87;;;;;;;5.54;100.00;100760.50;4999846;56;1145152;-66
2022/11/15 03:27:21;;;;;;;95.57;38.23;;;;;;;5.50;100.00;100753.25;5019206;57;1143018;-67
2022/11/15 03:32:48;;;;;;;102.53;44.47;;;;;;;5.47;100.00;100736.85;5063591;57;1143022;-67
2022/11/15 03:38:27;;;;;;;99.33;43.03;;;;;;;5.44;100.00;100740.95;5064868;56;1145246;-67
2022/11/15 03:44:23;;;;;;;90.33;40.37;;;;;;;5.46;100.00;100751.75;5118546;56;1143241;-68
2022/11/15 03:50:00;;;;;;;90.43;42.33;;;;;;;5.48;100.00;100750.36;5105628;56;1142869;-69
2022/11/15 03:55:24;;;;;;;90.47;40.95;;;;;;;5.54;100.00;100740.36;5065283;56;1143070;-69
2022/11/15 04:00:47;;;;;;;102.55;46.23;;;;;;;5.55;100.00;100728.94;5036406;56;1142998;-67
2022/11/15 04:06:11;;;;;;;92.50;38.63;;;;;;;5.47;100.00;100720.65;5074228;56;1143005;-69
2022/11/15 04:11:35;;;;;;;81.80;39.83;;;;;;;5.43;100.00;100726.98;5110521;56;1143165;-69
2022/11/15 04:16:59;;;;;;;105.55;43.80;;;;;;;5.41;100.00;100721.42;5146546;55;1143097;-67
2022/11/15 04:28:02;;;;;;;78.97;39.53;;;;;;;5.39;100.00;100704.45;4995046;56;1140842;-67
2022/11/15 04:33:27;;;;;;;73.93;38.07;;;;;;;5.34;100.00;100697.78;4965154;57;1143005;-66
2022/11/15 04:38:50;;;;;;;91.75;38.28;;;;;;;5.39;100.00;100684.78;5061933;56;1143156;-68
2022/11/15 04:44:13;;;;;;;;;;;;;;;5.42;100.00;100693.81;5053750;56;1142981;-67
2022/11/15 04:49:37;;;;;;;96.40;42.27;;;;;;;5.43;100.00;100689.41;5112712;55;976125;-67
2022/11/15 04:55:00;;;;;;;78.52;39.70;;;;;;;5.39;100.00;100702.30;5239038;55;1139096;-70
2022/11/15 05:00:23;;;;;;;77.30;37.03;;;;;;;5.33;100.00;100700.02;5238509;55;1142929;-67
2022/11/15 05:05:46;;;;;;;;;;;;;;;5.31;100.00;100704.03;5201926;55;1142873;-70
2022/11/15 05:11:10;;;;;;;107.95;42.15;;;;;;;5.29;100.00;100693.62;5188627;55;976173;-67
2022/11/15 05:16:33;;;;;;;84.53;37.33;;;;;;;5.26;100.00;100684.59;5238334;55;1143150;-68
2022/11/15 05:21:58;;;;;;;89.63;41.50;;;;;;;5.27;100.00;100684.14;5127033;55;1143148;-68
2022/11/15 05:27:21;;;;;;;89.13;46.60;;;;;;;5.32;100.00;100678.19;5123972;56;1143225;-67
2022/11/15 05:32:46;;;;;;;106.93;55.20;;;;;;;5.37;100.00;100677.46;5120465;56;1142932;-68
2022/11/15 05:38:09;;;;;;;85.57;42.13;;;;;;;5.27;100.00;100668.41;5195582;55;1145014;-68
2022/11/15 05:43:37;;;;;;;76.97;37.10;;;;;;;5.26;100.00;100678.50;4958785;56;1141083;-67
2022/11/15 05:49:01;;;;;;;79.13;35.33;;;;;;;5.25;100.00;100668.48;5126368;56;1149016;-67
2022/11/15 05:54:26;;;;;;;87.70;34.50;;;;;;;5.25;100.00;100671.10;5040243;56;1143093;-67
2022/11/15 05:59:49;;;;;;;89.10;37.23;;;;;;;5.20;100.00;100677.05;5027267;56;1142998;-65
2022/11/15 06:05:13;;;;;;;86.40;35.50;;;;;;;5.16;100.00;100686.48;4917575;56;1141035;-68
2022/11/15 06:10:36;;;;;;;131.90;69.17;;;;;;;5.18;100.00;100678.08;5130446;55;1143197;-67
2022/11/15 06:16:01;;;;;;;64.90;38.53;;;;;;;5.21;100.00;100677.42;5147447;56;1145184;-68
2022/11/15 06:21:27;;;;;;;85.00;39.18;;;;;;;5.28;100.00;100680.13;5149173;56;1143174;-68
2022/11/15 06:26:50;;;;;;;87.67;34.35;;;;;;;5.28;100.00;100682.75;5173369;55;1142990;-69
2022/11/15 06:32:13;;;;;;;100.92;33.38;;;;;;;5.25;100.00;100684.67;5213950;55;1143060;-70
2022/11/15 06:37:35;;;;;;;;;;;;;;;5.15;100.00;100684.33;5225308;55;1143041;-68
2022/11/15 06:43:01;;;;;;;70.12;30.68;;;;;;;5.16;100.00;100683.86;5169719;56;976376;-66
2022/11/15 06:48:24;;;;;;;69.17;30.83;;;;;;;5.12;100.00;100693.66;5131588;56;1141023;-70
2022/11/15 06:53:47;;;;;;;88.20;31.20;;;;;;;5.10;100.00;100695.50;5146101;56;1143226;-69
2022/11/15 06:59:10;;;;;;;115.90;32.75;;;;;;;5.08;100.00;100696.51;5146051;56;1143123;-66
2022/11/15 07:04:36;;;;;;;73.57;30.97;;;;;;;4.95;100.00;100701.08;5164103;55;1143117;-68
2022/11/15 07:10:00;;;;;;;75.37;31.48;;;;;;;4.91;100.00;100682.50;5235174;55;1143181;-71
2022/11/15 07:15:26;;;;;;;63.15;30.60;;;;;;;4.87;100.00;100687.54;5210895;55;1143098;-70
2022/11/15 07:20:49;;;;;;;91.67;34.47;;;;;;;4.94;100.00;100693.30;5162158;55;1248438;-68
2022/11/15 07:26:12;;;;;;;90.00;33.40;;;;;;;5.02;100.00;100700.78;5149809;55;1142886;-65
2022/11/15 07:31:36;;;;;;;88.87;38.50;;;;;;;5.05;100.00;100709.30;5149409;56;1142869;-69
2022/11/15 07:37:00;;;;;;;97.92;40.60;;;;;;;5.05;100.00;100705.83;5161470;56;1140968;-67
2022/11/15 07:48:04;;;;;;;72.97;33.53;;;;;;;5.07;100.00;100698.28;5149732;56;1143146;-66
2022/11/15 07:53:27;;;;;;;;;;;;;;;5.01;100.00;100685.52;5153247;56;1142944;-68
2022/11/15 07:58:52;;;;;;;127.87;34.70;;;;;;;5.01;100.00;100676.34;5176020;55;976241;-68
2022/11/15 08:04:16;;;;;;;69.10;28.92;;;;;;;4.98;100.00;100676.49;5163239;55;1140840;-69
2022/11/15 08:09:38;;;;;;;;;;;;;;;5.05;100.00;100679.62;5234487;55;1143159;-69
2022/11/15 08:15:01;;;;;;;77.97;31.87;;;;;;;5.03;100.00;100674.48;5251901;55;986032;-69
2022/11/15 08:20:29;;;;;;;69.47;34.03;;;;;;;5.07;100.00;100674.69;5175989;55;1140980;-68
2022/11/15 08:25:52;;;;;;;75.73;36.47;;;;;;;5.13;100.00;100660.42;5148790;55;1142986;-66
2022/11/15 08:31:18;;;;;;;76.47;36.20;;;;;;;5.20;100.00;100659.16;5126118;55;1140988;-68
2022/11/15 08:36:41;;;;;;;61.30;32.50;;;;;;;5.28;100.00;100659.61;5087126;56;1142846;-67
2022/11/15 08:42:04;;;;;;;77.87;37.03;;;;;;;5.30;100.00;100665.16;5141250;56;1143174;-66
2022/11/15 08:47:27;;;;;;;;;;;;;;;5.25;100.00;100643.57;5088462;56;1142980;-67
2022/11/15 08:52:50;;;;;;;56.10;30.43;;;;;;;5.21;100.00;100656.91;5153857;55;974073;-66
2022/11/15 08:58:14;;;;;;;61.08;32.28;;;;;;;5.20;100.00;100652.13;5150313;55;1140987;-67
2022/11/15 09:03:37;;;;;;;87.35;32.98;;;;;;;5.21;100.00;100642.49;5149769;55;1143298;-69
2022/11/15 09:09:03;;;;;;;65.23;31.90;;;;;;;5.16;100.00;100639.30;5171425;55;1143210;-66
2022/11/15 09:14:27;;;;;;;56.60;31.63;;;;;;;5.16;100.00;100630.12;5153935;55;1143119;-68
2022/11/15 09:19:50;;;;;;;61.47;31.93;;;;;;;5.24;100.00;100631.84;5102210;56;1143178;-65
2022/11/15 09:25:13;;;;;;;72.67;33.90;;;;;;;5.29;100.00;100634.62;5046515;56;1142943;-69
2022/11/15 09:30:37;;;;;;;72.83;31.73;;;;;;;5.28;100.00;100635.55;5111784;56;1143516;-69
2022/11/15 09:36:08;;;;;;;73.13;35.27;;;;;;;5.24;100.00;100627.45;5136686;56;1142941;-71
2022/11/15 09:41:51;;;;;;;67.22;32.15;;;;;;;5.32;100.00;100628.83;5134576;56;1143078;-68
2022/11/15 09:47:36;;;;;;;59.42;32.48;;;;;;;5.44;100.00;100622.45;5132227;56;1142993;-67
2022/11/15 09:52:47;;;;;;;58.30;32.05;;;;;;;5.50;100.00;100626.52;5003809;57;1143143;-67
2022/11/15 09:58:03;;;;;;;54.30;31.30;;;;;;;5.48;100.00;100617.89;5048485;56;1143106;-66
2022/11/15 10:03:16;;;;;;;64.13;35.63;;;;;;;5.53;100.00;100620.62;5042139;56;1143098;-69
2022/11/15 15:06:13;;;;;;;90.33;47.53;;;;;;;6.51;100.00;100402.24;5262142;55;96978;-83
2022/11/15 15:11:28;;;;;;;76.83;44.77;;;;;;;6.46;100.00;100401.67;5176333;55;1148445;-80
2022/11/15 15:16:33;;;;;;;78.03;44.87;;;;;;;6.34;100.00;100392.31;5066435;55;1143142;-82
2022/11/15 15:21:39;;;;;;;80.90;43.37;;;;;;;6.35;100.00;100401.04;5098319;55;1143079;-81
2022/11/15 15:26:45;;;;;;;95.10;45.03;;;;;;;6.37;100.00;100403.58;5087873;55;1143104;-80
2022/11/15 15:31:50;;;;;;;101.47;46.17;;;;;;;6.35;100.00;100401.04;5060088;55;1143020;-79
2022/11/15 15:37:24;;;;;;;96.80;46.43;;;;;;;6.32;100.00;100392.03;4989994;56;1145211;-82
2022/11/15 15:42:29;;;;;;;82.60;43.37;;;;;;;6.31;100.00;100391.19;4954282;57;1142963;-81
2022/11/15 15:47:35;;;;;;;90.13;45.60;;;;;;;6.31;100.00;100380.68;4960568;57;1142989;-80
2022/11/15 15:52:43;;;;;;;103.97;57.10;;;;;;;6.28;100.00;100370.83;5005196;57;1143240;-83
2022/11/15 15:57:49;;;;;;;78.27;41.87;;;;;;;6.27;100.00;100379.17;4999763;58;1144993;-84
2022/11/15 16:02:56;;;;;;;79.23;43.00;;;;;;;6.28;100.00;100378.70;4998544;57;1143014;-82
2022/11/15 16:08:01;;;;;;;74.50;39.33;;;;;;;6.21;100.00;100376.95;4954389;58;1143167;-85
2022/11/15 16:13:07;;;;;;;66.73;37.37;;;;;;;6.22;100.00;100382.58;5017622;55;1142979;-81
2022/11/15 16:18:18;;;;;;;76.83;39.83;;;;;;;6.24;100.00;100391.20;5126414;55;1143027;-85
2022/11/15 16:23:24;;;;;;;57.05;31.77;;;;;;;6.26;100.00;100385.86;5178610;55;1143313;-82
2022/11/15 16:28:34;;;;;;;103.27;46.23;;;;;;;6.24;100.00;100387.27;5086244;56;1142909;-84
2022/11/15 16:33:40;;;;;;;103.10;51.33;;;;;;;6.23;100.00;100384.73;5073545;56;1145175;-83
2022/11/15 16:38:46;;;;;;;86.33;42.93;;;;;;;6.26;100.00;100381.42;4980511;57;1145047;-85
2022/11/15 16:43:52;;;;;;;105.10;44.90;;;;;;;6.31;100.00;100379.83;5102975;56;1143020;-82
2022/11/15 16:48:58;;;;;;;111.23;50.70;;;;;;;6.37;100.00;100383.41;5111271;55;1145203;-85
2022/11/15 16:54:04;;;;;;;102.85;49.60;;;;;;;6.35;100.00;100379.56;5116172;56;1145385;-80
2022/11/15 16:59:17;;;;;;;206.84;124.72;;;;;;;6.35;100.00;100387.91;5012683;57;1145326;-81
2022/11/15 17:04:24;;;;;;;;;;;;;;;6.31;100.00;100381.14;5056049;56;1147556;-80
2022/11/15 17:09:30;;;;;;;91.47;45.80;;;;;;;6.32;100.00;100379.73;5148639;56;976086;-81
2022/11/15 17:14:36;;;;;;;112.47;51.57;;;;;;;6.35;100.00;100380.02;5088415;55;1141028;-81
2022/11/15 17:19:43;;;;;;;92.63;38.60;;;;;;;6.35;100.00;100383.50;4928022;57;1145093;-80
2022/11/15 17:24:50;;;;;;;87.67;44.83;;;;;;;6.31;100.00;100382.46;4963394;56;1143150;-81
2022/11/15 17:29:56;;;;;;;100.33;43.20;;;;;;;6.30;100.00;100385.55;5112284;55;1143299;-80
2022/11/15 17:35:05;;;;;;;83.13;40.10;;;;;;;6.32;100.00;100383.68;5106998;55;1145093;-80
2022/11/15 17:40:12;;;;;;;75.17;36.67;;;;;;;6.30;100.00;100385.55;5096293;56;1142892;-80
2022/11/15 17:45:18;;;;;;;76.90;40.80;;;;;;;6.27;100.00;100378.33;5062848;55;1143109;-85
2022/11/15 17:50:23;;;;;;;79.20;37.88;;;;;;;6.23;100.00;100372.91;5036452;55;1143018;-84
2022/11/15 17:55:29;;;;;;;84.35;42.33;;;;;;;6.24;100.00;100371.52;5090668;55;1143047;-81
2022/11/15 18:00:36;;;;;;;90.10;44.93;;;;;;;6.21;100.00;100359.88;5011621;56;1143260;-81
2022/11/15 18:05:42;;;;;;;83.17;43.07;;;;;;;6.15;100.00;100355.45;5006048;56;1143121;-81
2022/11/15 18:10:49;;;;;;;80.33;39.47;;;;;;;6.14;100.00;100361.64;5075057;56;1142945;-80
2022/11/15 18:16:01;;;;;;;89.10;42.25;;;;;;;6.16;100.00;100356.68;5033147;56;1143249;-81
2022/11/15 18:21:13;;;;;;;85.80;36.73;;;;;;;6.19;100.00;100349.93;5002395;57;1142891;-80
2022/11/15 18:26:20;;;;;;;90.95;44.75;;;;;;;6.21;100.00;100350.69;4946778;57;1143443;-80
2022/11/15 18:31:30;;;;;;;74.93;38.73;;;;;;;6.15;100.00;100348.42;4900868;58;1143099;-81
2022/11/15 18:36:38;;;;;;;78.43;38.40;;;;;;;6.15;100.00;100344.48;4950608;55;1143232;-80
2022/11/15 18:41:45;;;;;;;61.83;29.97;;;;;;;6.15;100.00;100337.08;5108300;55;1143230;-81
2022/11/15 18:46:51;;;;;;;96.63;46.53;;;;;;;6.20;100.00;100333.23;5077575;55;1143133;-80
2022/11/15 18:51:57;;;;;;;90.53;37.17;;;;;;;6.17;100.00;100337.36;5097541;55;1143000;-82
2022/11/15 18:57:02;;;;;;;90.87;45.33;;;;;;;6.14;100.00;100341.95;5091158;56;1143161;-83
2022/11/15 19:02:11;;;;;;;91.47;41.73;;;;;;;6.12;100.00;100346.45;5059665;56;1143397;-83
2022/11/15 19:07:17;;;;;;;113.90;48.58;;;;;;;6.13;100.00;100341.58;5070260;56;1143239;-83
2022/11/15 19:12:23;;;;;;;118.13;49.10;;;;;;;6.15;100.00;100334.45;5143104;56;1145255;-80
2022/11/15 19:17:30;;;;;;;111.65;47.78;;;;;;;6.15;100.00;100329.20;5096177;56;1145306;-81
2022/11/15 19:22:35;;;;;;;105.17;43.97;;;;;;;6.18;100.00;100332.48;5066403;55;1145022;-84
2022/11/15 19:27:41;;;;;;;132.10;53.90;;;;;;;6.24;100.00;100335.21;5073126;56;1145208;-84
2022/11/15 19:32:47;;;;;;;106.87;44.03;;;;;;;6.25;100.00;100342.16;5055398;56;1145111;-83
2022/11/15 19:37:54;;;;;;;104.73;44.33;;;;;;;6.14;100.00;100338.02;5052719;56;1145074;-83
2022/11/15 19:43:00;;;;;;;101.33;41.03;;;;;;;6.02;100.00;100336.16;5044273;57;1145004;-82
2022/11/15 19:48:07;;;;;;;88.03;36.17;;;;;;;6.00;100.00;100343.66;5078167;56;1145179;-83
2022/11/15 19:53:14;;;;;;;103.72;40.30;;;;;;;5.97;100.00;100347.77;5057129;54;1142915;-83
2022/11/15 19:58:20;;;;;;;93.62;39.27;;;;;;;6.02;100.00;100347.50;5114481;54;1145213;-84
2022/11/15 20:03:25;;;;;;;95.13;40.90;;;;;;;6.01;100.00;100351.06;5078101;55;1143014;-84
2022/11/15 20:08:34;;;;;;;66.93;28.60;;;;;;;5.99;100.00;100343.75;5139247;56;1143010;-84
2022/11/15 20:13:40;;;;;;;91.10;38.40;;;;;;;5.97;100.00;100345.62;5138800;55;1143210;-83
2022/11/15 20:18:49;;;;;;;92.83;38.07;;;;;;;5.97;100.00;100345.62;5139558;55;1142938;-84
2022/11/15 20:23:55;;;;;;;68.70;29.10;;;;;;;5.95;100.00;100351.45;5140604;56;1143077;-84
2022/11/15 20:29:02;;;;;;;77.27;35.60;;;;;;;5.89;100.00;100340.01;5131604;55;1143015;-68
2022/11/15 20:34:08;;;;;;;94.77;40.13;;;;;;;5.87;100.00;100330.88;5082463;56;1142926;-70
2022/11/15 20:39:14;;;;;;;127.78;53.83;;;;;;;5.87;100.00;100323.47;5145675;55;1142885;-69
2022/11/15 20:44:21;;;;;;;134.60;51.63;;;;;;;5.85;100.00;100314.84;5138622;55;1144974;-70
2022/11/15 20:49:27;;;;;;;88.10;40.03;;;;;;;5.83;100.00;100319.34;5143092;55;1145025;-68
2022/11/15 20:54:33;;;;;;;84.97;37.50;;;;;;;5.78;100.00;100313.08;5037227;56;1142826;-67
2022/11/15 20:59:39;;;;;;;71.93;34.93;;;;;;;5.76;100.00;100309.70;5086765;55;1142943;-70
2022/11/15 21:04:45;;;;;;;67.40;29.63;;;;;;;5.78;100.00;100313.08;5093794;55;1142853;-71
2022/11/15 21:15:15;;;;;;;70.65;31.10;;;;;;;5.72;100.00;100290.30;5048694;56;1152554;-71
2022/11/15 21:20:21;;;;;;;66.30;30.43;;;;;;;5.73;100.00;100292.83;4971786;57;1143233;-70
2022/11/15 21:25:26;;;;;;;59.43;27.30;;;;;;;5.71;100.00;100295.16;4985383;57;1143151;-68
2022/11/15 21:30:32;;;;;;;86.33;37.33;;;;;;;5.68;100.00;100288.32;4985409;57;1143154;-68
2022/11/15 21:35:38;;;;;;;71.47;32.93;;;;;;;5.67;100.00;100278.77;4994354;56;1142974;-69
2022/11/15 21:40:43;;;;;;;59.80;26.63;;;;;;;5.62;100.00;100275.13;5084865;56;1143030;-69
2022/11/15 21:46:03;;;;;;;65.43;29.20;;;;;;;5.57;100.00;100262.75;5097878;56;1143081;-66
2022/11/15 21:51:11;;;;;;;62.27;27.00;;;;;;;5.59;100.00;100259.57;5056832;56;1142936;-70
2022/11/15 21:56:17;;;;;;;75.93;34.23;;;;;;;5.60;100.00;100257.79;5047147;56;1143008;-68
2022/11/15 22:06:44;;;;;;;58.97;26.37;;;;;;;5.61;100.00;100260.79;5018071;56;1143124;-66
2022/11/15 22:11:50;;;;;;;72.97;30.00;;;;;;;5.65;100.00;100268.86;5081612;56;1143088;-67
2022/11/15 22:16:55;;;;;;;74.23;27.73;;;;;;;5.64;100.00;100269.79;5068325;55;1143096;-68
2022/11/15 22:22:01;;;;;;;75.83;31.53;;;;;;;5.64;100.00;100265.86;5128169;55;1143063;-69
2022/11/15 22:27:07;;;;;;;81.97;32.67;;;;;;;5.63;100.00;100265.02;5133328;54;1143184;-67
2022/11/15 22:32:12;;;;;;;80.27;30.37;;;;;;;5.66;100.00;100262.64;5145670;56;1143001;-68
2022/11/15 22:37:18;;;;;;;78.03;30.93;;;;;;;5.63;100.00;100258.92;5095686;55;1143052;-66
2022/11/15 22:42:24;;;;;;;87.35;34.18;;;;;;;5.68;100.00;100258.15;5082585;56;1143175;-68
2022/11/15 22:47:29;;;;;;;69.67;26.68;;;;;;;5.71;100.00;100255.34;5097840;56;1143226;-68
2022/11/15 22:52:35;;;;;;;57.87;24.87;;;;;;;5.70;100.00;100249.72;5120207;55;1143300;-70
2022/11/15 22:57:41;;;;;;;71.17;30.97;;;;;;;5.70;100.00;100241.00;5132314;56;1143207;-70
2022/11/15 23:02:47;;;;;;;69.73;27.17;;;;;;;5.69;100.00;100242.78;5106640;55;1142957;-67
2022/11/15 23:07:52;;;;;;;49.17;22.10;;;;;;;5.73;100.00;100248.69;5093393;56;1143263;-68
2022/11/15 23:13:17;;;;;;;75.83;32.83;;;;;;;5.73;100.00;100248.69;5111430;56;1143177;-72
2022/11/15 23:18:23;;;;;;;69.42;31.90;;;;;;;5.69;100.00;100248.50;5051119;56;1143268;-70
2022/11/15 23:23:28;;;;;;;72.85;32.85;;;;;;;5.66;100.00;100244.27;5065341;57;1142954;-70
2022/11/15 23:28:35;;;;;;;65.15;28.57;;;;;;;5.66;100.00;100235.09;5066120;56;1143897;-68
2022/11/15 23:33:58;;;;;;;70.33;31.03;;;;;;;5.72;100.00;100222.92;5062697;56;1143029;-69
2022/11/15 23:39:04;;;;;;;72.37;29.72;;;;;;;5.76;100.00;100216.55;5061069;56;1143230;-66
2022/11/15 23:44:10;;;;;;;71.53;30.77;;;;;;;5.80;100.00;100210.18;5074173;56;1143119;-66
2022/11/15 23:49:16;;;;;;;62.23;26.70;;;;;;;5.84;100.00;100209.03;5061734;56;1142793;-71
2022/11/15 23:54:21;;;;;;;66.30;27.23;;;;;;;5.90;100.00;100201.28;4999198;57;1142978;-70
2022/11/15 23:59:27;;;;;;;64.50;26.87;;;;;;;5.86;100.00;100199.28;4983541;57;1142980;-69
